createdAt,value
2024-03-20T00:02:21.058Z,3.99
2024-03-20T00:07:23.913Z,3.98
2024-03-20T00:12:28.128Z,3.96
2024-03-20T00:17:31.443Z,3.94
2024-03-20T00:22:36.397Z,3.90
2024-03-20T00:27:39.510Z,3.89
2024-03-20T00:32:42.040Z,3.88
2024-03-20T00:37:44.740Z,3.89
2024-03-20T00:42:47.090Z,3.87
2024-03-20T00:47:49.618Z,3.86
2024-03-20T00:52:53.132Z,3.86
2024-03-20T00:57:56.715Z,3.87
2024-03-20T01:02:59.385Z,3.88
2024-03-20T01:08:02.058Z,3.87
2024-03-20T01:13:05.122Z,3.86
2024-03-20T01:18:08.355Z,3.84
2024-03-20T01:23:11.151Z,3.83
2024-03-20T01:28:13.666Z,3.82
2024-03-20T01:33:16.097Z,3.81
2024-03-20T01:38:18.949Z,3.81
2024-03-20T01:43:22.292Z,3.82
2024-03-20T01:48:24.676Z,3.83
2024-03-20T01:53:27.533Z,3.82
2024-03-20T01:58:30.233Z,3.83
2024-03-20T02:03:32.803Z,3.84
2024-03-20T02:08:35.677Z,3.81
2024-03-20T02:13:45.962Z,3.80
2024-03-20T02:18:50.582Z,3.80
2024-03-20T02:23:53.330Z,3.78
2024-03-20T02:28:55.775Z,3.80
2024-03-20T02:33:58.869Z,3.77
2024-03-20T02:39:01.221Z,3.76
2024-03-20T02:44:04.736Z,3.76
2024-03-20T02:49:07.126Z,3.76
2024-03-20T02:54:09.827Z,3.76
2024-03-20T02:59:12.689Z,3.78
2024-03-20T03:04:15.201Z,3.78
2024-03-20T03:09:20.649Z,3.78
2024-03-20T03:14:23.310Z,3.79
2024-03-20T03:19:25.809Z,3.79
2024-03-20T03:24:28.364Z,3.77
2024-03-20T03:29:30.942Z,3.73
2024-03-20T03:34:33.920Z,3.72
2024-03-20T03:39:36.559Z,3.71
2024-03-20T03:44:39.383Z,3.70
2024-03-20T03:49:42.329Z,3.70
2024-03-20T03:54:45.543Z,3.73
2024-03-20T03:59:48.209Z,3.72
2024-03-20T04:04:51.496Z,3.72
2024-03-20T04:09:55.349Z,3.72
2024-03-20T04:14:58.169Z,3.74
2024-03-20T04:20:00.582Z,3.73
2024-03-20T04:25:04.923Z,3.73
2024-03-20T04:30:09.082Z,3.73
2024-03-20T04:35:12.776Z,3.74
2024-03-20T04:40:16.131Z,3.76
2024-03-20T04:45:18.532Z,3.78
2024-03-20T04:50:21.846Z,3.81
2024-03-20T04:55:24.298Z,3.80
2024-03-20T05:00:26.794Z,3.81
2024-03-20T05:05:29.393Z,3.81
2024-03-20T05:10:31.890Z,3.82
2024-03-20T05:15:39.317Z,3.85
2024-03-20T05:20:41.722Z,3.87
2024-03-20T05:25:44.333Z,3.91
2024-03-20T05:30:46.983Z,3.94
2024-03-20T05:35:51.023Z,4.00
2024-03-20T05:40:53.549Z,4.04
2024-03-20T05:45:56.090Z,4.06
2024-03-20T05:50:58.811Z,4.08
2024-03-20T05:56:01.557Z,4.16
2024-03-20T06:01:04.354Z,4.22
2024-03-20T06:06:07.566Z,4.29
2024-03-20T06:11:10.197Z,4.37
2024-03-20T06:16:16.099Z,4.46
2024-03-20T06:21:18.959Z,4.57
2024-03-20T06:26:21.492Z,4.60
2024-03-20T06:31:26.865Z,4.62
2024-03-20T06:36:30.003Z,4.72
2024-03-20T06:41:35.063Z,4.87
2024-03-20T06:46:39.378Z,5.00
2024-03-20T06:51:43.886Z,5.13
2024-03-20T06:56:54.198Z,5.29
2024-03-20T07:01:59.270Z,5.47
2024-03-20T07:07:04.520Z,5.59
2024-03-20T07:12:07.468Z,5.75
2024-03-20T07:17:09.875Z,5.83
2024-03-20T07:22:16.170Z,6.14
2024-03-20T07:27:18.913Z,6.82
2024-03-20T07:32:22.079Z,7.41
2024-03-20T07:37:26.446Z,7.53
2024-03-20T07:42:29.045Z,7.53
2024-03-20T07:47:31.524Z,8.52
2024-03-20T07:52:34.020Z,9.86
2024-03-20T07:57:36.457Z,11.08
2024-03-20T08:02:39.120Z,11.68
2024-03-20T08:07:45.400Z,12.27
2024-03-20T08:12:48.598Z,12.77
2024-03-20T08:17:51.632Z,13.46
2024-03-20T08:22:54.216Z,13.96
2024-03-20T08:27:58.535Z,14.47
2024-03-20T08:33:00.995Z,14.70
2024-03-20T08:38:03.450Z,14.52
2024-03-20T08:43:17.740Z,14.88
2024-03-20T08:48:23.110Z,15.52
2024-03-20T08:53:25.512Z,15.62
2024-03-20T08:58:28.760Z,15.84
2024-03-20T09:03:31.769Z,16.21
2024-03-20T09:08:34.360Z,16.34
2024-03-20T09:13:43.931Z,16.59
2024-03-20T09:18:46.628Z,16.95
2024-03-20T09:23:49.164Z,17.05
2024-03-20T09:28:52.397Z,16.92
2024-03-20T09:33:54.775Z,16.80
2024-03-20T09:38:57.659Z,17.11
2024-03-20T09:44:01.504Z,17.80
2024-03-20T09:49:04.765Z,18.29
2024-03-20T09:54:09.128Z,17.58
2024-03-20T09:59:11.611Z,16.72
2024-03-20T10:04:15.614Z,15.62
2024-03-20T10:09:17.844Z,14.49
2024-03-20T10:14:22.672Z,14.80
2024-03-20T10:19:26.844Z,15.20
2024-03-20T10:24:29.980Z,15.18
2024-03-20T10:29:36.855Z,15.86
2024-03-20T10:34:42.980Z,16.69
2024-03-20T10:39:48.441Z,16.09
2024-03-20T10:44:56.527Z,15.11
2024-03-20T10:49:58.859Z,14.24
2024-03-20T10:55:01.915Z,13.72
2024-03-20T11:00:12.027Z,13.25
2024-03-20T11:05:41.179Z,13.32
2024-03-20T11:10:49.639Z,14.64
2024-03-20T11:15:53.132Z,15.94
2024-03-20T11:20:59.200Z,16.39
2024-03-20T11:26:04.315Z,16.38
2024-03-20T11:31:10.453Z,15.73
2024-03-20T11:36:19.578Z,14.88
2024-03-20T11:41:22.714Z,14.45
2024-03-20T11:46:25.748Z,14.27
2024-03-20T11:51:28.847Z,14.92
2024-03-20T11:56:35.485Z,15.18
2024-03-20T12:01:38.108Z,15.87
2024-03-20T12:06:41.618Z,16.02
2024-03-20T12:11:54.675Z,15.72
2024-03-20T12:16:57.210Z,15.24
2024-03-20T12:21:59.735Z,14.52
2024-03-20T12:27:22.904Z,14.21
2024-03-20T12:32:25.878Z,13.63
2024-03-20T12:37:30.596Z,13.18
2024-03-20T12:42:33.912Z,12.82
2024-03-20T12:47:36.616Z,12.54
2024-03-20T12:52:42.404Z,12.47
2024-03-20T12:57:45.281Z,12.46
2024-03-20T13:02:48.628Z,12.30
2024-03-20T13:07:51.027Z,12.15
2024-03-20T13:13:03.040Z,12.02
2024-03-20T13:18:06.467Z,11.92
2024-03-20T13:23:13.724Z,11.82
2024-03-20T13:28:18.788Z,11.77
2024-03-20T13:33:21.953Z,11.75
2024-03-20T13:38:24.873Z,11.83
2024-03-20T13:43:40.698Z,11.96
2024-03-20T13:48:44.822Z,12.00
2024-03-20T13:53:50.774Z,11.99
2024-03-20T13:58:53.843Z,12.02
2024-03-20T14:04:00.053Z,11.96
2024-03-20T14:09:05.036Z,11.84
2024-03-20T14:14:08.253Z,11.70
2024-03-20T14:19:10.602Z,11.59
2024-03-20T14:24:16.254Z,11.42
2024-03-20T14:29:20.179Z,11.36
2024-03-20T14:34:24.570Z,11.26
2024-03-20T14:39:29.410Z,11.15
2024-03-20T14:44:37.463Z,10.99
2024-03-20T14:49:42.215Z,10.92
2024-03-20T15:00:14.135Z,10.76
2024-03-20T15:05:17.878Z,10.69
2024-03-20T15:10:20.515Z,10.69
2024-03-20T15:15:23.598Z,10.68
2024-03-20T15:20:26.283Z,10.60
2024-03-20T15:25:28.762Z,10.49
2024-03-20T15:30:38.349Z,10.42
2024-03-20T15:35:44.098Z,10.31
2024-03-20T15:40:47.510Z,10.26
2024-03-20T15:45:50.225Z,10.28
2024-03-20T15:50:52.692Z,10.25
2024-03-20T15:55:56.915Z,10.16
2024-03-20T16:01:00.369Z,10.02
2024-03-20T16:06:09.566Z,9.94
2024-03-20T16:11:13.240Z,9.88
2024-03-20T16:16:20.840Z,9.90
2024-03-20T16:21:25.739Z,9.77
2024-03-20T16:26:28.958Z,9.64
2024-03-20T16:31:35.603Z,9.54
2024-03-20T16:36:43.139Z,9.36
2024-03-20T16:42:02.245Z,9.27
2024-03-20T16:47:05.517Z,9.16
2024-03-20T16:52:08.002Z,9.03
2024-03-20T16:57:13.055Z,8.91
2024-03-20T17:02:16.463Z,8.85
2024-03-20T17:07:20.492Z,8.69
2024-03-20T17:12:22.865Z,8.53
2024-03-20T17:17:25.144Z,8.31
2024-03-20T17:22:28.169Z,8.09
2024-03-20T17:27:30.866Z,7.92
2024-03-20T17:32:33.279Z,7.76
2024-03-20T17:37:37.207Z,7.62
2024-03-20T17:42:43.025Z,7.49
2024-03-20T17:47:45.278Z,7.36
2024-03-20T17:52:48.326Z,7.22
2024-03-20T17:57:51.194Z,7.06
2024-03-20T18:02:54.382Z,6.93
2024-03-20T18:07:57.199Z,6.81
2024-03-20T18:12:59.595Z,6.71
2024-03-20T18:18:04.774Z,6.63
2024-03-20T18:23:13.631Z,6.62
2024-03-20T18:28:17.411Z,6.60
2024-03-20T18:33:23.778Z,6.52
2024-03-20T18:38:26.595Z,6.41
2024-03-20T18:43:31.845Z,6.31
2024-03-20T18:48:34.771Z,6.22
2024-03-20T18:53:37.532Z,6.19
2024-03-20T18:58:41.135Z,6.11
2024-03-20T19:03:43.701Z,6.01
2024-03-20T19:08:47.059Z,5.92
2024-03-20T19:13:50.227Z,5.84
2024-03-20T19:18:52.498Z,5.76
2024-03-20T19:23:56.092Z,5.72
2024-03-20T19:29:03.429Z,5.72
2024-03-20T19:34:08.564Z,5.75
2024-03-20T19:39:14.402Z,5.71
2024-03-20T19:44:16.680Z,5.67
2024-03-20T19:49:20.212Z,5.58
2024-03-20T19:54:22.540Z,5.46
2024-03-20T19:59:24.900Z,5.36
2024-03-20T20:04:27.963Z,5.25
2024-03-20T20:09:38.553Z,5.13
2024-03-20T20:14:46.854Z,5.02
2024-03-20T20:19:52.012Z,5.01
2024-03-20T20:24:54.546Z,5.04
2024-03-20T20:30:00.714Z,5.01
2024-03-20T20:35:03.457Z,4.96
2024-03-20T20:40:14.020Z,4.93
2024-03-20T20:45:16.680Z,4.85
2024-03-20T20:50:20.420Z,4.78
2024-03-20T20:55:30.060Z,4.77
2024-03-20T21:00:33.474Z,4.62
2024-03-20T21:05:54.637Z,4.54
2024-03-20T21:11:15.663Z,4.45
2024-03-20T21:16:36.914Z,4.42
2024-03-20T21:21:40.164Z,4.42
2024-03-20T21:26:45.862Z,4.34
2024-03-20T21:31:48.465Z,4.28
2024-03-20T21:36:51.789Z,4.25
2024-03-20T21:41:54.591Z,4.25
2024-03-20T21:46:59.323Z,4.23
2024-03-20T21:52:02.162Z,4.20
2024-03-20T21:57:05.942Z,4.13
2024-03-20T22:02:19.055Z,4.09
2024-03-20T22:07:21.413Z,3.95
2024-03-20T22:12:24.826Z,3.83
2024-03-20T22:17:27.430Z,3.79
2024-03-20T22:22:30.401Z,3.76
2024-03-20T22:27:34.310Z,3.75
2024-03-20T22:32:37.184Z,3.73
2024-03-20T22:37:41.456Z,3.68
2024-03-20T22:42:48.586Z,3.63
2024-03-20T22:47:54.912Z,3.41
2024-03-20T22:52:57.278Z,3.19
2024-03-20T22:57:59.705Z,3.07
2024-03-20T23:03:02.348Z,2.98
2024-03-20T23:08:06.273Z,2.94
2024-03-20T23:13:11.088Z,2.94
2024-03-20T23:18:13.697Z,2.95
2024-03-20T23:23:16.414Z,2.91
2024-03-20T23:28:24.167Z,2.81
2024-03-20T23:33:27.643Z,2.69
2024-03-20T23:38:30.525Z,2.54
2024-03-20T23:43:34.271Z,2.46
2024-03-20T23:48:59.372Z,2.38
2024-03-20T23:54:02.140Z,2.37
2024-03-20T23:59:05.483Z,2.40
